Aviation Digital Data Service (ADDS)

Output produced by METARs form (2258 UTC 21 May 2022)
found at http://www.aviationweather.gov/metar/data/
 
ESSA 212250Z 04003KT CAVOK 05/01 Q1012 NOSIG
TAF ESSA 212030Z 2121/2221 05006KT CAVOK 
     BECMG 2211/2213 11010KT
       
ESNX 212250Z AUTO 00000KT 9999 OVC110/// 09/05 Q1011
ESSD 212250Z AUTO 24002KT 9999 BKN140/// 06/03 Q1012
ESSB 212250Z AUTO 06004KT 020V090 9999 SCT150/// 09/00 Q1012
TAF ESSB 211130Z 2112/2116 06010KT CAVOK
       
ESNG 212250Z AUTO 29006KT 9999 NCD 05/03 Q1010
ESOH 212250Z AUTO 10003KT 9999 OVC098/// 06/05 Q1012
ESMT 212250Z AUTO 23002KT 9999 FEW015/// OVC078/// 10/09 Q1014
ESUT 212250Z AUTO VRB02KT 9999 FEW040/// SCT055/// OVC068/// 04/03 Q1011 REDZ
ESGJ 212250Z AUTO 25002KT 9999 OVC038/// 08/08 Q1013
TAF AMD ESGJ 211807Z 2118/2121 31005KT 8000 -RA SCT005 BKN015 
     TEMPO 2118/2121 2500 RA BR BKN004
       
ESPA 212250Z AUTO 20005KT 9999 FEW090/// OVC120/// 10/02 Q1011
TAF ESPA 211430Z 2115/2119 18010KT CAVOK 
     PROB40 2115/2118 FEW050CB
       
ESMQ 212250Z 33005KT CAVOK ///// Q1012
TAF ESMQ 212030Z 2121/2206 32004KT CAVOK
       
ESIA 212250Z AUTO 27002KT 9999 OVC100/// 09/08 Q1013
TAF ESIA 211425Z 2115/2118 VRB03KT 9999 FEW040
       
ESOK 212250Z AUTO 30001KT 0250 R03/P1500N R21/P1500N FG NCD 04/04 Q1013
ESNQ 212250Z AUTO 20004KT 9999 FEW098/// 05/03 Q1010
ESNK 212250Z AUTO 35002KT 9999 NCD 05/00 Q1013
ESMK 212250Z AUTO 28003KT 9999 NCD 09/07 Q1014
ESMX 212250Z AUTO 09003KT 5000 +DZ ///031 08/08 Q1013
TAF ESMX 211430Z 2115/2118 33005KT 9999 -RA SCT008 BKN020 
     PROB40 2115/2118 3000 RA BR BKN008
       
ESSP 212250Z AUTO 00000KT 9999 NCD 04/03 Q1013
ESGG 212250Z 23006KT 9999 SCT019 OVC057 09/08 Q1013
TAF ESGG 212030Z 2121/2221 24004KT CAVOK 
     PROB40 2123/2208 3000 BR BKN006 
     PROB40 2210/2215 SHRA BKN025CB
       
ESTL 212250Z AUTO 28002KT 9999 OVC055/// 09/09 Q1014
ESNL 212250Z AUTO 13003KT 100V200 9999 BKN079/// 07/03 Q1012
ESCF 212250Z AUTO 20003KT 9999 FEW130/// 05/04 Q1013
TAF ESCF 211120Z 2112/2114 06005KT 9999 SCT030 BKN100 RMK MIL
       
ESKM 212250Z AUTO 08004KT 9999 OVC140/// 08/08 Q1012
ESOE 212250Z AUTO 22003KT 9999 FEW062/// OVC130/// 07/06 Q1013
ESNO 212250Z AUTO 36004KT 9999 NCD 03/00 Q1012
TAF ESNO 211730Z 2118/2120 12005KT CAVOK
       
ESUP 212250Z AUTO VRB03KT 0300 R11/P2000D FEW089/// 07/07 Q1010
ESDF 212250Z 31003KT 9999 BKN038 09/09 Q1013
TAF ESDF 212020Z 2121/2206 33003KT 9999 FEW006 BKN030 
     TEMPO 2121/2122 7000 -SHRA BKN030TCU RMK MIL
       
ESSL 212250Z AUTO 24004KT 210V270 9999 OVC110/// 06/03 Q1013
TAF ESSL 212030Z 2121/2123 VRB02KT CAVOK
       
ESIB 212250Z 14002KT 9999 FEW010 BKN030 10/09 Q1013
TAF ESIB 212025Z 2121/2206 VRB02KT 9999 FEW010 BKN030 
     TEMPO 2121/2124 BKN006 
     PROB30 2122/2124 0500 FG VV002 
     PROB40 2200/2206 0300 FG VV001 RMK MIL
       
ESGP 212250Z AUTO 25005KT 9999 FEW012/// SCT018/// OVC023/// 11/08 Q1013
TAF AMD ESGP 211942Z 2119/2121 27005KT 9999 SCT015 BKN020 
     TEMPO 2119/2121 BKN013
       
ESKN 212250Z 00000KT CAVOK 06/04 Q1012
TAF ESKN 212030Z 2121/2221 04004KT CAVOK 
     BECMG 2211/2213 14010KT
       
ESNS 212250Z AUTO 21006KT 9999 NCD 10/00 Q1012
TAF ESNS 211130Z 2112/2114 17009KT CAVOK
       
ESKS 212250Z AUTO 15003KT 9999 OVC062/// 07/02 Q1011
ESMS 212250Z 29005KT CAVOK 08/07 Q1014
TAF ESMS 212002Z 2121/2221 31005KT 9999 SCT040 
     PROB40 2123/2206 3000 BR
       
ESNN 212250Z 34003KT CAVOK 05/02 Q1013
ESND 212250Z AUTO 09004KT 9999 SCT110/// 09/M00 Q1012
ESST 212250Z AUTO 14003KT 9999 OVC130/// 07/06 Q1012
ESGT 212250Z AUTO 15003KT 9999 FEW110/// BKN140/// 08/07 Q1013
ESNU 212250Z 31001KT CAVOK 03/02 Q1013
TAF ESNU 212030Z 2121/2206 VRB02KT CAVOK
       
ESCM 212250Z 28001KT CAVOK 05/02 Q1013
TAF ESCM 212020Z 2121/2206 VRB02KT CAVOK RMK MIL
       
ESOW 212250Z AUTO 00000KT 9999 FEW170/// SCT180/// BKN200/// 08/03 Q1013
ESPE 212250Z AUTO 22003KT 9999 FEW088/// OVC120/// 07/04 Q1011
ESNV 212250Z AUTO VRB01KT 9999 NCD 06/04 Q1011
ESSV 212250Z AUTO 01006KT 9999 -DZ FEW030/// SCT041/// BKN055/// 07/06 Q1011
TAF ESSV 211415Z 2115/2118 01010G20KT 9999 -RA SCT007 BKN040 
     TEMPO 2115/2118 4000 SHRA BKN007 BKN025CB RMK MIL